首页
METAR-TAF:

METAR-TAF

机场 :

Pinedale, 怀俄明州, 美国

纬度: 42-47-43N, 经度: 109-48-25W, 海拔: 2160米

当前天气观测

该预报发布于22分钟前的15:35 UTC
风速6节,风向西转西南
温度 -5°C
湿度 100%
气压 1011 hPa
能見度: 1.2公里
多云层高于300英尺
阴天层高于900英尺

METAR: KPNA 081535Z AUTO 24006KT 3/4SM SN BKN003 OVC009 M05/M05 A2984 RMK AO2

时间: 08:57 (15:57 UTC)

预报

该预报发布于4小时和18分钟前的11:39 UTC
预报有效从08日的 12点(UTC)到 09日的 12点(UTC)
风速5节,风向多变
能見度: 3.2公里
阴天层高于700英尺
小雪
从 08日的 2100点(UTC)
风速10节,风向西转西北
能見度: 10公里
阴天层高于1800英尺
附近有阵雨
从 09日的 0500点(UTC)
风速9节,风向西转西北
能見度: 10公里
多云层高于3500英尺
从 09日的 1100点(UTC)
风速6节,风向西转西北
能見度: 10公里
散云层高于4000英尺

TAF: KPNA 081139Z 0812/0912 VRB05KT 2SM -SN OVC007 FM082100 30010KT P6SM VCSH OVC018 FM090500 30009KT P6SM BKN035 FM091100 29006KT P6SM SCT040 AMD LTD TO CLD VIS AND WIND

超过4000个机场的气象观测和天气预报(METAR&TAF报告)。

可查询的气象台以黄色和红色小点在地图上表示。

将鼠标移到小点上方,可查看气象台名称。

然后点击查看天气观测和预报。

如需切换地图:点击带黑十字的绿色按钮放大地图;点击带横线的绿色按钮缩小地图;或者点击绿色箭头查看邻近地区的地图。


METAR-TAF: